sensor_id;sensor_type;location;lat;lon;timestamp;P1;durP1;ratioP1;P2;durP2;ratioP2
18726;SDS011;9492;51.888;5.186;2024-02-15T00:01:39;5.43;;;3.37;;
18726;SDS011;9492;51.888;5.186;2024-02-15T00:04:05;8.20;;;3.80;;
18726;SDS011;9492;51.888;5.186;2024-02-15T00:06:31;8.00;;;3.47;;
18726;SDS011;9492;51.888;5.186;2024-02-15T00:08:57;7.17;;;3.20;;
18726;SDS011;9492;51.888;5.186;2024-02-15T00:11:23;5.40;;;3.00;;
18726;SDS011;9492;51.888;5.186;2024-02-15T00:13:49;5.07;;;3.10;;
18726;SDS011;9492;51.888;5.186;2024-02-15T00:16:15;5.53;;;2.90;;
18726;SDS011;9492;51.888;5.186;2024-02-15T00:18:41;3.70;;;3.23;;
18726;SDS011;9492;51.888;5.186;2024-02-15T00:21:07;5.50;;;3.83;;
18726;SDS011;9492;51.888;5.186;2024-02-15T00:23:33;5.83;;;3.80;;
18726;SDS011;9492;51.888;5.186;2024-02-15T00:25:59;8.50;;;4.83;;
18726;SDS011;9492;51.888;5.186;2024-02-15T00:28:25;6.83;;;5.60;;
18726;SDS011;9492;51.888;5.186;2024-02-15T00:30:54;11.77;;;6.90;;
18726;SDS011;9492;51.888;5.186;2024-02-15T00:33:20;12.87;;;7.30;;
18726;SDS011;9492;51.888;5.186;2024-02-15T00:35:47;8.67;;;6.93;;
18726;SDS011;9492;51.888;5.186;2024-02-15T00:38:16;10.17;;;8.50;;
18726;SDS011;9492;51.888;5.186;2024-02-15T00:40:43;10.50;;;9.37;;
18726;SDS011;9492;51.888;5.186;2024-02-15T00:43:08;13.53;;;9.97;;
18726;SDS011;9492;51.888;5.186;2024-02-15T00:45:34;14.87;;;10.00;;
18726;SDS011;9492;51.888;5.186;2024-02-15T00:48:00;14.63;;;10.17;;
18726;SDS011;9492;51.888;5.186;2024-02-15T00:50:26;13.70;;;10.97;;
18726;SDS011;9492;51.888;5.186;2024-02-15T00:52:52;13.63;;;11.37;;
18726;SDS011;9492;51.888;5.186;2024-02-15T00:55:18;32.57;;;10.67;;
18726;SDS011;9492;51.888;5.186;2024-02-15T00:57:45;11.23;;;9.30;;
18726;SDS011;9492;51.888;5.186;2024-02-15T01:00:11;12.03;;;9.67;;
18726;SDS011;9492;51.888;5.186;2024-02-15T01:02:38;14.97;;;10.03;;
18726;SDS011;9492;51.888;5.186;2024-02-15T01:05:04;11.70;;;9.73;;
18726;SDS011;9492;51.888;5.186;2024-02-15T01:07:30;11.33;;;8.50;;
18726;SDS011;9492;51.888;5.186;2024-02-15T01:09:56;12.53;;;8.67;;
18726;SDS011;9492;51.888;5.186;2024-02-15T01:12:23;11.83;;;7.70;;
18726;SDS011;9492;51.888;5.186;2024-02-15T01:14:49;13.07;;;8.20;;
18726;SDS011;9492;51.888;5.186;2024-02-15T01:17:15;12.57;;;7.93;;
18726;SDS011;9492;51.888;5.186;2024-02-15T01:19:42;10.23;;;7.10;;
18726;SDS011;9492;51.888;5.186;2024-02-15T01:22:08;10.17;;;6.80;;
18726;SDS011;9492;51.888;5.186;2024-02-15T01:24:34;13.90;;;6.60;;
18726;SDS011;9492;51.888;5.186;2024-02-15T01:26:59;9.13;;;6.47;;
18726;SDS011;9492;51.888;5.186;2024-02-15T01:29:26;11.93;;;6.63;;
18726;SDS011;9492;51.888;5.186;2024-02-15T01:31:52;9.90;;;6.40;;
18726;SDS011;9492;51.888;5.186;2024-02-15T01:34:18;9.57;;;6.10;;
18726;SDS011;9492;51.888;5.186;2024-02-15T01:36:47;11.30;;;7.33;;
18726;SDS011;9492;51.888;5.186;2024-02-15T01:39:13;11.57;;;6.40;;
18726;SDS011;9492;51.888;5.186;2024-02-15T01:41:39;11.80;;;6.17;;
18726;SDS011;9492;51.888;5.186;2024-02-15T01:44:05;9.67;;;6.57;;
18726;SDS011;9492;51.888;5.186;2024-02-15T01:46:32;8.23;;;6.40;;
18726;SDS011;9492;51.888;5.186;2024-02-15T01:48:58;8.30;;;5.97;;
18726;SDS011;9492;51.888;5.186;2024-02-15T01:51:24;11.13;;;6.70;;
18726;SDS011;9492;51.888;5.186;2024-02-15T01:53:52;8.57;;;5.20;;
18726;SDS011;9492;51.888;5.186;2024-02-15T01:56:19;9.17;;;6.17;;
18726;SDS011;9492;51.888;5.186;2024-02-15T01:58:45;9.30;;;6.10;;
18726;SDS011;9492;51.888;5.186;2024-02-15T02:01:11;11.87;;;5.57;;
18726;SDS011;9492;51.888;5.186;2024-02-15T02:03:38;11.33;;;6.10;;
18726;SDS011;9492;51.888;5.186;2024-02-15T02:06:04;13.83;;;6.00;;
18726;SDS011;9492;51.888;5.186;2024-02-15T02:08:31;8.27;;;5.57;;
18726;SDS011;9492;51.888;5.186;2024-02-15T02:10:57;12.10;;;5.80;;
18726;SDS011;9492;51.888;5.186;2024-02-15T02:13:23;9.30;;;5.30;;
18726;SDS011;9492;51.888;5.186;2024-02-15T02:15:49;12.00;;;5.50;;
18726;SDS011;9492;51.888;5.186;2024-02-15T02:18:16;8.47;;;5.10;;
18726;SDS011;9492;51.888;5.186;2024-02-15T02:20:42;9.57;;;5.80;;
18726;SDS011;9492;51.888;5.186;2024-02-15T02:23:15;9.33;;;5.57;;
18726;SDS011;9492;51.888;5.186;2024-02-15T02:25:43;13.60;;;5.93;;
18726;SDS011;9492;51.888;5.186;2024-02-15T02:28:11;12.30;;;5.50;;
18726;SDS011;9492;51.888;5.186;2024-02-15T02:30:37;11.27;;;5.97;;
18726;SDS011;9492;51.888;5.186;2024-02-15T02:33:05;9.43;;;5.87;;
18726;SDS011;9492;51.888;5.186;2024-02-15T02:35:33;9.83;;;5.60;;
18726;SDS011;9492;51.888;5.186;2024-02-15T02:37:59;12.80;;;5.93;;
18726;SDS011;9492;51.888;5.186;2024-02-15T02:40:25;10.67;;;5.60;;
18726;SDS011;9492;51.888;5.186;2024-02-15T02:42:52;9.77;;;5.27;;
18726;SDS011;9492;51.888;5.186;2024-02-15T02:45:19;12.03;;;5.70;;
18726;SDS011;9492;51.888;5.186;2024-02-15T02:47:47;11.57;;;5.97;;
18726;SDS011;9492;51.888;5.186;2024-02-15T02:50:13;15.87;;;6.70;;
18726;SDS011;9492;51.888;5.186;2024-02-15T02:52:39;10.80;;;5.33;;
18726;SDS011;9492;51.888;5.186;2024-02-15T02:55:05;11.63;;;5.70;;
18726;SDS011;9492;51.888;5.186;2024-02-15T02:57:35;9.20;;;5.43;;
18726;SDS011;9492;51.888;5.186;2024-02-15T03:00:03;8.73;;;5.87;;
18726;SDS011;9492;51.888;5.186;2024-02-15T03:02:29;11.20;;;5.70;;
18726;SDS011;9492;51.888;5.186;2024-02-15T03:04:55;10.37;;;5.33;;
18726;SDS011;9492;51.888;5.186;2024-02-15T03:07:21;10.97;;;5.50;;
18726;SDS011;9492;51.888;5.186;2024-02-15T03:09:48;11.77;;;5.00;;
18726;SDS011;9492;51.888;5.186;2024-02-15T03:12:14;10.40;;;5.00;;
18726;SDS011;9492;51.888;5.186;2024-02-15T03:14:42;12.33;;;5.83;;
18726;SDS011;9492;51.888;5.186;2024-02-15T03:17:08;12.63;;;5.40;;
18726;SDS011;9492;51.888;5.186;2024-02-15T03:19:34;11.97;;;5.67;;
18726;SDS011;9492;51.888;5.186;2024-02-15T03:22:00;8.37;;;5.30;;
18726;SDS011;9492;51.888;5.186;2024-02-15T03:24:26;9.13;;;4.77;;
18726;SDS011;9492;51.888;5.186;2024-02-15T03:26:52;8.50;;;4.93;;
18726;SDS011;9492;51.888;5.186;2024-02-15T03:29:20;8.57;;;4.30;;
18726;SDS011;9492;51.888;5.186;2024-02-15T03:31:47;9.47;;;4.10;;
18726;SDS011;9492;51.888;5.186;2024-02-15T03:34:14;12.30;;;4.90;;
18726;SDS011;9492;51.888;5.186;2024-02-15T03:36:40;8.57;;;4.43;;
18726;SDS011;9492;51.888;5.186;2024-02-15T03:39:06;9.33;;;4.47;;
18726;SDS011;9492;51.888;5.186;2024-02-15T03:41:33;10.13;;;4.57;;
18726;SDS011;9492;51.888;5.186;2024-02-15T03:43:59;9.90;;;4.87;;
18726;SDS011;9492;51.888;5.186;2024-02-15T03:46:25;9.30;;;4.23;;
18726;SDS011;9492;51.888;5.186;2024-02-15T03:48:52;12.27;;;4.37;;
18726;SDS011;9492;51.888;5.186;2024-02-15T03:51:19;8.57;;;4.17;;
18726;SDS011;9492;51.888;5.186;2024-02-15T03:53:45;9.43;;;4.53;;
18726;SDS011;9492;51.888;5.186;2024-02-15T03:56:14;7.73;;;4.00;;
18726;SDS011;9492;51.888;5.186;2024-02-15T03:58:40;8.40;;;4.67;;
18726;SDS011;9492;51.888;5.186;2024-02-15T04:01:06;14.17;;;4.50;;
18726;SDS011;9492;51.888;5.186;2024-02-15T04:03:34;13.17;;;4.97;;
18726;SDS011;9492;51.888;5.186;2024-02-15T04:06:00;6.67;;;3.83;;
18726;SDS011;9492;51.888;5.186;2024-02-15T04:08:27;8.73;;;4.13;;
18726;SDS011;9492;51.888;5.186;2024-02-15T04:10:53;7.67;;;3.80;;
18726;SDS011;9492;51.888;5.186;2024-02-15T04:13:19;12.33;;;4.90;;
18726;SDS011;9492;51.888;5.186;2024-02-15T04:15:46;7.60;;;4.00;;
18726;SDS011;9492;51.888;5.186;2024-02-15T04:18:14;11.27;;;4.83;;
18726;SDS011;9492;51.888;5.186;2024-02-15T04:20:40;7.40;;;4.83;;
18726;SDS011;9492;51.888;5.186;2024-02-15T04:23:10;11.27;;;4.23;;
18726;SDS011;9492;51.888;5.186;2024-02-15T04:25:36;8.67;;;4.37;;
18726;SDS011;9492;51.888;5.186;2024-02-15T04:28:02;10.90;;;4.37;;
18726;SDS011;9492;51.888;5.186;2024-02-15T04:30:29;7.93;;;4.13;;
18726;SDS011;9492;51.888;5.186;2024-02-15T04:32:55;7.20;;;4.13;;
18726;SDS011;9492;51.888;5.186;2024-02-15T04:35:21;7.50;;;3.93;;
18726;SDS011;9492;51.888;5.186;2024-02-15T04:37:47;9.13;;;4.13;;
18726;SDS011;9492;51.888;5.186;2024-02-15T04:40:14;10.30;;;4.10;;
18726;SDS011;9492;51.888;5.186;2024-02-15T04:42:40;7.10;;;4.17;;
18726;SDS011;9492;51.888;5.186;2024-02-15T04:45:09;8.73;;;4.13;;
18726;SDS011;9492;51.888;5.186;2024-02-15T04:47:38;8.03;;;3.90;;
18726;SDS011;9492;51.888;5.186;2024-02-15T04:50:05;8.53;;;3.97;;
18726;SDS011;9492;51.888;5.186;2024-02-15T04:52:32;8.73;;;3.53;;
18726;SDS011;9492;51.888;5.186;2024-02-15T04:54:58;7.23;;;4.27;;
18726;SDS011;9492;51.888;5.186;2024-02-15T04:57:27;9.07;;;3.67;;
18726;SDS011;9492;51.888;5.186;2024-02-15T04:59:53;7.20;;;4.27;;
18726;SDS011;9492;51.888;5.186;2024-02-15T05:02:20;8.27;;;4.57;;
18726;SDS011;9492;51.888;5.186;2024-02-15T05:04:49;8.53;;;4.40;;
18726;SDS011;9492;51.888;5.186;2024-02-15T05:07:20;9.07;;;4.27;;
18726;SDS011;9492;51.888;5.186;2024-02-15T05:09:47;11.47;;;3.90;;
18726;SDS011;9492;51.888;5.186;2024-02-15T05:12:21;6.90;;;3.13;;
18726;SDS011;9492;51.888;5.186;2024-02-15T05:14:47;6.53;;;3.60;;
18726;SDS011;9492;51.888;5.186;2024-02-15T05:17:13;7.13;;;3.37;;
18726;SDS011;9492;51.888;5.186;2024-02-15T05:19:39;10.77;;;4.43;;
18726;SDS011;9492;51.888;5.186;2024-02-15T05:22:05;8.07;;;3.57;;
18726;SDS011;9492;51.888;5.186;2024-02-15T05:24:31;9.30;;;3.53;;
18726;SDS011;9492;51.888;5.186;2024-02-15T05:26:57;7.23;;;3.40;;
18726;SDS011;9492;51.888;5.186;2024-02-15T05:29:24;12.50;;;4.17;;
18726;SDS011;9492;51.888;5.186;2024-02-15T05:31:50;5.67;;;3.33;;
18726;SDS011;9492;51.888;5.186;2024-02-15T05:34:16;4.53;;;3.80;;
18726;SDS011;9492;51.888;5.186;2024-02-15T05:36:42;9.30;;;4.20;;
18726;SDS011;9492;51.888;5.186;2024-02-15T05:39:08;5.73;;;3.87;;
18726;SDS011;9492;51.888;5.186;2024-02-15T05:41:36;7.13;;;3.73;;
18726;SDS011;9492;51.888;5.186;2024-02-15T05:44:02;8.33;;;3.63;;
18726;SDS011;9492;51.888;5.186;2024-02-15T05:46:32;9.00;;;4.57;;
18726;SDS011;9492;51.888;5.186;2024-02-15T05:49:02;7.60;;;3.83;;
18726;SDS011;9492;51.888;5.186;2024-02-15T05:51:29;6.93;;;4.53;;
18726;SDS011;9492;51.888;5.186;2024-02-15T05:53:56;10.23;;;3.97;;
18726;SDS011;9492;51.888;5.186;2024-02-15T05:56:24;7.77;;;3.67;;
18726;SDS011;9492;51.888;5.186;2024-02-15T05:58:51;6.37;;;3.87;;
18726;SDS011;9492;51.888;5.186;2024-02-15T06:01:17;7.60;;;4.40;;
18726;SDS011;9492;51.888;5.186;2024-02-15T06:03:43;7.60;;;4.30;;
18726;SDS011;9492;51.888;5.186;2024-02-15T06:06:10;5.73;;;3.63;;
18726;SDS011;9492;51.888;5.186;2024-02-15T06:08:36;7.60;;;4.00;;
18726;SDS011;9492;51.888;5.186;2024-02-15T06:11:03;7.03;;;4.10;;
18726;SDS011;9492;51.888;5.186;2024-02-15T06:13:34;5.90;;;3.90;;
18726;SDS011;9492;51.888;5.186;2024-02-15T06:16:00;6.53;;;4.50;;
18726;SDS011;9492;51.888;5.186;2024-02-15T06:18:27;8.17;;;4.10;;
18726;SDS011;9492;51.888;5.186;2024-02-15T06:20:57;6.07;;;3.93;;
18726;SDS011;9492;51.888;5.186;2024-02-15T06:23:24;7.13;;;4.00;;
18726;SDS011;9492;51.888;5.186;2024-02-15T06:25:52;7.00;;;4.10;;
18726;SDS011;9492;51.888;5.186;2024-02-15T06:28:18;10.10;;;4.10;;
18726;SDS011;9492;51.888;5.186;2024-02-15T06:31:02;7.97;;;3.80;;
18726;SDS011;9492;51.888;5.186;2024-02-15T06:33:47;6.20;;;4.07;;
18726;SDS011;9492;51.888;5.186;2024-02-15T06:36:31;8.20;;;4.03;;
18726;SDS011;9492;51.888;5.186;2024-02-15T06:39:27;5.80;;;4.13;;
18726;SDS011;9492;51.888;5.186;2024-02-15T06:42:11;6.13;;;3.80;;
18726;SDS011;9492;51.888;5.186;2024-02-15T06:44:40;6.80;;;3.30;;
18726;SDS011;9492;51.888;5.186;2024-02-15T06:47:06;6.67;;;3.47;;
18726;SDS011;9492;51.888;5.186;2024-02-15T06:49:33;6.23;;;3.67;;
18726;SDS011;9492;51.888;5.186;2024-02-15T06:51:59;5.30;;;3.33;;
18726;SDS011;9492;51.888;5.186;2024-02-15T06:54:27;5.07;;;3.57;;
18726;SDS011;9492;51.888;5.186;2024-02-15T06:56:53;4.57;;;3.47;;
18726;SDS011;9492;51.888;5.186;2024-02-15T06:59:19;4.43;;;3.30;;
18726;SDS011;9492;51.888;5.186;2024-02-15T07:01:47;3.73;;;3.07;;
18726;SDS011;9492;51.888;5.186;2024-02-15T07:04:13;4.23;;;3.20;;
18726;SDS011;9492;51.888;5.186;2024-02-15T07:06:39;4.47;;;3.23;;
18726;SDS011;9492;51.888;5.186;2024-02-15T07:09:09;7.90;;;3.93;;
18726;SDS011;9492;51.888;5.186;2024-02-15T07:11:35;5.10;;;3.43;;
18726;SDS011;9492;51.888;5.186;2024-02-15T07:14:02;6.27;;;3.83;;
18726;SDS011;9492;51.888;5.186;2024-02-15T07:16:32;6.47;;;3.53;;
18726;SDS011;9492;51.888;5.186;2024-02-15T07:18:58;3.87;;;3.53;;
18726;SDS011;9492;51.888;5.186;2024-02-15T07:21:24;4.83;;;3.43;;
18726;SDS011;9492;51.888;5.186;2024-02-15T07:23:52;4.60;;;3.83;;
18726;SDS011;9492;51.888;5.186;2024-02-15T07:26:20;5.50;;;3.33;;
18726;SDS011;9492;51.888;5.186;2024-02-15T07:28:49;5.07;;;3.53;;
18726;SDS011;9492;51.888;5.186;2024-02-15T07:31:17;5.53;;;3.53;;
18726;SDS011;9492;51.888;5.186;2024-02-15T07:33:43;5.23;;;3.10;;
18726;SDS011;9492;51.888;5.186;2024-02-15T07:36:09;3.10;;;2.90;;
18726;SDS011;9492;51.888;5.186;2024-02-15T07:38:35;3.20;;;2.90;;
18726;SDS011;9492;51.888;5.186;2024-02-15T07:41:01;5.13;;;3.33;;
18726;SDS011;9492;51.888;5.186;2024-02-15T07:43:27;4.53;;;2.70;;
18726;SDS011;9492;51.888;5.186;2024-02-15T07:45:53;3.97;;;3.23;;
18726;SDS011;9492;51.888;5.186;2024-02-15T07:48:20;3.50;;;2.80;;
18726;SDS011;9492;51.888;5.186;2024-02-15T07:50:49;3.20;;;2.90;;
18726;SDS011;9492;51.888;5.186;2024-02-15T07:53:15;5.20;;;2.97;;
18726;SDS011;9492;51.888;5.186;2024-02-15T07:55:41;3.30;;;2.37;;
18726;SDS011;9492;51.888;5.186;2024-02-15T07:58:07;14.13;;;2.90;;
18726;SDS011;9492;51.888;5.186;2024-02-15T08:00:33;4.13;;;2.17;;
18726;SDS011;9492;51.888;5.186;2024-02-15T08:03:00;3.73;;;2.47;;
18726;SDS011;9492;51.888;5.186;2024-02-15T08:05:26;7.27;;;2.43;;
18726;SDS011;9492;51.888;5.186;2024-02-15T08:07:52;3.40;;;2.03;;
18726;SDS011;9492;51.888;5.186;2024-02-15T08:10:22;4.23;;;2.60;;
18726;SDS011;9492;51.888;5.186;2024-02-15T08:12:48;2.87;;;2.20;;
18726;SDS011;9492;51.888;5.186;2024-02-15T08:15:17;4.73;;;2.93;;
18726;SDS011;9492;51.888;5.186;2024-02-15T08:17:44;5.23;;;2.30;;
18726;SDS011;9492;51.888;5.186;2024-02-15T08:20:14;6.00;;;2.70;;
18726;SDS011;9492;51.888;5.186;2024-02-15T08:22:40;3.37;;;2.67;;
18726;SDS011;9492;51.888;5.186;2024-02-15T08:25:09;3.03;;;2.20;;
18726;SDS011;9492;51.888;5.186;2024-02-15T08:27:36;6.47;;;2.60;;
18726;SDS011;9492;51.888;5.186;2024-02-15T08:30:06;2.90;;;1.80;;
18726;SDS011;9492;51.888;5.186;2024-02-15T08:32:34;3.43;;;2.30;;
18726;SDS011;9492;51.888;5.186;2024-02-15T08:35:00;3.93;;;2.53;;
18726;SDS011;9492;51.888;5.186;2024-02-15T08:37:26;4.57;;;1.87;;
18726;SDS011;9492;51.888;5.186;2024-02-15T08:39:52;4.30;;;2.30;;
18726;SDS011;9492;51.888;5.186;2024-02-15T08:42:18;6.83;;;2.10;;
18726;SDS011;9492;51.888;5.186;2024-02-15T08:44:47;2.80;;;2.30;;
18726;SDS011;9492;51.888;5.186;2024-02-15T08:47:13;2.80;;;2.10;;
18726;SDS011;9492;51.888;5.186;2024-02-15T08:49:39;4.20;;;2.47;;
18726;SDS011;9492;51.888;5.186;2024-02-15T08:52:06;3.33;;;2.30;;
18726;SDS011;9492;51.888;5.186;2024-02-15T08:54:35;5.97;;;2.60;;
18726;SDS011;9492;51.888;5.186;2024-02-15T08:57:03;3.87;;;2.40;;
18726;SDS011;9492;51.888;5.186;2024-02-15T08:59:30;4.10;;;2.20;;
18726;SDS011;9492;51.888;5.186;2024-02-15T09:01:56;6.47;;;2.50;;
18726;SDS011;9492;51.888;5.186;2024-02-15T09:04:22;4.37;;;2.33;;
18726;SDS011;9492;51.888;5.186;2024-02-15T09:06:49;3.23;;;2.50;;
18726;SDS011;9492;51.888;5.186;2024-02-15T09:09:16;2.47;;;2.27;;
18726;SDS011;9492;51.888;5.186;2024-02-15T09:11:42;4.23;;;2.73;;
18726;SDS011;9492;51.888;5.186;2024-02-15T09:14:08;5.47;;;2.70;;
18726;SDS011;9492;51.888;5.186;2024-02-15T09:16:37;4.97;;;2.83;;
18726;SDS011;9492;51.888;5.186;2024-02-15T09:19:03;4.00;;;2.23;;
18726;SDS011;9492;51.888;5.186;2024-02-15T09:21:31;5.37;;;2.20;;
18726;SDS011;9492;51.888;5.186;2024-02-15T09:23:58;5.47;;;2.43;;
18726;SDS011;9492;51.888;5.186;2024-02-15T09:26:27;6.27;;;2.43;;
18726;SDS011;9492;51.888;5.186;2024-02-15T09:28:53;5.40;;;2.50;;
18726;SDS011;9492;51.888;5.186;2024-02-15T09:31:19;3.20;;;2.10;;
18726;SDS011;9492;51.888;5.186;2024-02-15T09:33:45;6.00;;;2.87;;
18726;SDS011;9492;51.888;5.186;2024-02-15T09:36:11;6.70;;;2.67;;
18726;SDS011;9492;51.888;5.186;2024-02-15T09:38:38;5.67;;;2.73;;
18726;SDS011;9492;51.888;5.186;2024-02-15T09:41:04;5.53;;;2.67;;
18726;SDS011;9492;51.888;5.186;2024-02-15T09:43:32;2.97;;;2.67;;
18726;SDS011;9492;51.888;5.186;2024-02-15T09:45:58;5.27;;;2.73;;
18726;SDS011;9492;51.888;5.186;2024-02-15T09:48:24;6.53;;;2.40;;
18726;SDS011;9492;51.888;5.186;2024-02-15T09:50:52;5.17;;;2.40;;
18726;SDS011;9492;51.888;5.186;2024-02-15T09:53:21;3.53;;;2.20;;
18726;SDS011;9492;51.888;5.186;2024-02-15T09:55:50;8.47;;;2.63;;
18726;SDS011;9492;51.888;5.186;2024-02-15T09:58:19;7.57;;;2.47;;
18726;SDS011;9492;51.888;5.186;2024-02-15T10:00:45;5.17;;;2.10;;
18726;SDS011;9492;51.888;5.186;2024-02-15T10:03:11;4.90;;;2.80;;
18726;SDS011;9492;51.888;5.186;2024-02-15T10:05:39;7.27;;;2.60;;
18726;SDS011;9492;51.888;5.186;2024-02-15T10:08:06;7.07;;;3.03;;
18726;SDS011;9492;51.888;5.186;2024-02-15T10:10:32;5.00;;;2.77;;
18726;SDS011;9492;51.888;5.186;2024-02-15T10:13:00;6.00;;;2.77;;
18726;SDS011;9492;51.888;5.186;2024-02-15T10:15:36;5.30;;;2.83;;
18726;SDS011;9492;51.888;5.186;2024-02-15T10:18:03;3.83;;;2.70;;
18726;SDS011;9492;51.888;5.186;2024-02-15T10:20:30;4.87;;;2.77;;
18726;SDS011;9492;51.888;5.186;2024-02-15T10:25:28;4.33;;;2.27;;
18726;SDS011;9492;51.888;5.186;2024-02-15T10:28:07;4.70;;;2.53;;
18726;SDS011;9492;51.888;5.186;2024-02-15T10:30:37;5.63;;;2.40;;
18726;SDS011;9492;51.888;5.186;2024-02-15T10:33:03;6.57;;;3.17;;
18726;SDS011;9492;51.888;5.186;2024-02-15T10:35:30;8.63;;;2.90;;
18726;SDS011;9492;51.888;5.186;2024-02-15T10:40:35;4.90;;;2.60;;
18726;SDS011;9492;51.888;5.186;2024-02-15T10:43:04;5.23;;;2.60;;
18726;SDS011;9492;51.888;5.186;2024-02-15T10:45:30;6.40;;;3.00;;
18726;SDS011;9492;51.888;5.186;2024-02-15T10:47:56;5.60;;;2.77;;
18726;SDS011;9492;51.888;5.186;2024-02-15T10:50:25;7.20;;;2.77;;
18726;SDS011;9492;51.888;5.186;2024-02-15T10:52:56;5.20;;;2.67;;
18726;SDS011;9492;51.888;5.186;2024-02-15T10:55:38;3.27;;;2.37;;
18726;SDS011;9492;51.888;5.186;2024-02-15T10:58:05;4.83;;;2.57;;
18726;SDS011;9492;51.888;5.186;2024-02-15T11:00:35;7.40;;;2.97;;
18726;SDS011;9492;51.888;5.186;2024-02-15T11:03:05;5.13;;;2.97;;
18726;SDS011;9492;51.888;5.186;2024-02-15T11:05:36;8.30;;;3.77;;
18726;SDS011;9492;51.888;5.186;2024-02-15T11:08:04;6.77;;;2.63;;
18726;SDS011;9492;51.888;5.186;2024-02-15T11:10:31;3.97;;;2.50;;
18726;SDS011;9492;51.888;5.186;2024-02-15T11:12:58;2.67;;;2.37;;
18726;SDS011;9492;51.888;5.186;2024-02-15T11:35:16;4.67;;;2.53;;
18726;SDS011;9492;51.888;5.186;2024-02-15T11:42:58;4.77;;;3.03;;
18726;SDS011;9492;51.888;5.186;2024-02-15T11:45:29;5.63;;;2.90;;
18726;SDS011;9492;51.888;5.186;2024-02-15T11:48:02;5.97;;;2.93;;
18726;SDS011;9492;51.888;5.186;2024-02-15T11:50:32;5.83;;;2.83;;
18726;SDS011;9492;51.888;5.186;2024-02-15T11:53:03;3.67;;;2.53;;
18726;SDS011;9492;51.888;5.186;2024-02-15T11:55:39;8.07;;;2.73;;
18726;SDS011;9492;51.888;5.186;2024-02-15T11:58:05;6.60;;;2.90;;
18726;SDS011;9492;51.888;5.186;2024-02-15T12:00:34;3.90;;;2.17;;
18726;SDS011;9492;51.888;5.186;2024-02-15T12:03:19;4.30;;;2.13;;
18726;SDS011;9492;51.888;5.186;2024-02-15T12:06:04;4.20;;;2.30;;
18726;SDS011;9492;51.888;5.186;2024-02-15T12:09:00;5.00;;;2.87;;
18726;SDS011;9492;51.888;5.186;2024-02-15T12:11:44;4.27;;;2.60;;
18726;SDS011;9492;51.888;5.186;2024-02-15T12:14:29;6.80;;;2.40;;
18726;SDS011;9492;51.888;5.186;2024-02-15T12:17:14;5.27;;;2.70;;
18726;SDS011;9492;51.888;5.186;2024-02-15T12:20:06;4.47;;;2.30;;
18726;SDS011;9492;51.888;5.186;2024-02-15T12:22:39;7.13;;;2.93;;
18726;SDS011;9492;51.888;5.186;2024-02-15T12:25:06;5.43;;;2.57;;
18726;SDS011;9492;51.888;5.186;2024-02-15T12:27:39;5.10;;;2.10;;
18726;SDS011;9492;51.888;5.186;2024-02-15T12:30:05;5.03;;;2.27;;
18726;SDS011;9492;51.888;5.186;2024-02-15T12:32:33;6.17;;;2.73;;
18726;SDS011;9492;51.888;5.186;2024-02-15T12:35:13;5.03;;;2.37;;
18726;SDS011;9492;51.888;5.186;2024-02-15T12:37:44;6.63;;;2.33;;
18726;SDS011;9492;51.888;5.186;2024-02-15T12:40:16;5.90;;;2.80;;
18726;SDS011;9492;51.888;5.186;2024-02-15T12:42:46;4.53;;;2.60;;
18726;SDS011;9492;51.888;5.186;2024-02-15T12:45:18;3.33;;;2.10;;
18726;SDS011;9492;51.888;5.186;2024-02-15T12:47:55;3.27;;;1.90;;
18726;SDS011;9492;51.888;5.186;2024-02-15T12:50:21;3.40;;;2.30;;
18726;SDS011;9492;51.888;5.186;2024-02-15T12:52:48;3.57;;;2.47;;
18726;SDS011;9492;51.888;5.186;2024-02-15T12:55:15;2.47;;;2.20;;
18726;SDS011;9492;51.888;5.186;2024-02-15T12:57:42;4.20;;;2.40;;
18726;SDS011;9492;51.888;5.186;2024-02-15T13:00:11;4.37;;;2.40;;
18726;SDS011;9492;51.888;5.186;2024-02-15T13:02:52;5.10;;;2.47;;
18726;SDS011;9492;51.888;5.186;2024-02-15T13:05:18;4.37;;;2.10;;
18726;SDS011;9492;51.888;5.186;2024-02-15T13:07:48;4.43;;;2.40;;
18726;SDS011;9492;51.888;5.186;2024-02-15T13:10:14;5.00;;;2.60;;
18726;SDS011;9492;51.888;5.186;2024-02-15T13:12:41;5.90;;;2.70;;
18726;SDS011;9492;51.888;5.186;2024-02-15T13:15:08;3.67;;;2.30;;
18726;SDS011;9492;51.888;5.186;2024-02-15T13:17:49;7.20;;;2.73;;
18726;SDS011;9492;51.888;5.186;2024-02-15T13:20:19;6.00;;;2.50;;
18726;SDS011;9492;51.888;5.186;2024-02-15T13:22:52;5.47;;;2.60;;
18726;SDS011;9492;51.888;5.186;2024-02-15T13:25:22;4.87;;;2.93;;
18726;SDS011;9492;51.888;5.186;2024-02-15T13:27:48;6.33;;;2.47;;
18726;SDS011;9492;51.888;5.186;2024-02-15T13:30:14;6.20;;;2.67;;
18726;SDS011;9492;51.888;5.186;2024-02-15T13:32:42;5.97;;;2.73;;
18726;SDS011;9492;51.888;5.186;2024-02-15T13:35:08;5.87;;;2.50;;
18726;SDS011;9492;51.888;5.186;2024-02-15T13:37:47;5.87;;;2.63;;
18726;SDS011;9492;51.888;5.186;2024-02-15T13:40:13;4.73;;;2.50;;
18726;SDS011;9492;51.888;5.186;2024-02-15T13:42:46;7.23;;;2.40;;
18726;SDS011;9492;51.888;5.186;2024-02-15T13:45:20;7.10;;;2.40;;
18726;SDS011;9492;51.888;5.186;2024-02-15T13:47:52;5.20;;;2.43;;
18726;SDS011;9492;51.888;5.186;2024-02-15T13:50:18;4.67;;;2.07;;
18726;SDS011;9492;51.888;5.186;2024-02-15T13:52:44;4.23;;;2.00;;
18726;SDS011;9492;51.888;5.186;2024-02-15T13:55:11;5.30;;;2.00;;
18726;SDS011;9492;51.888;5.186;2024-02-15T13:57:38;3.80;;;2.13;;
18726;SDS011;9492;51.888;5.186;2024-02-15T14:00:04;3.83;;;2.10;;
18726;SDS011;9492;51.888;5.186;2024-02-15T14:02:31;4.87;;;2.07;;
18726;SDS011;9492;51.888;5.186;2024-02-15T14:04:57;6.80;;;2.23;;
18726;SDS011;9492;51.888;5.186;2024-02-15T14:07:23;7.10;;;1.80;;
18726;SDS011;9492;51.888;5.186;2024-02-15T14:09:49;2.77;;;1.80;;
18726;SDS011;9492;51.888;5.186;2024-02-15T14:12:15;3.23;;;2.00;;
18726;SDS011;9492;51.888;5.186;2024-02-15T14:14:44;2.77;;;2.00;;
18726;SDS011;9492;51.888;5.186;2024-02-15T14:17:11;3.47;;;2.17;;
18726;SDS011;9492;51.888;5.186;2024-02-15T14:19:37;4.97;;;1.87;;
18726;SDS011;9492;51.888;5.186;2024-02-15T14:22:02;4.60;;;2.00;;
18726;SDS011;9492;51.888;5.186;2024-02-15T14:24:33;3.60;;;2.00;;
18726;SDS011;9492;51.888;5.186;2024-02-15T14:26:59;3.83;;;1.93;;
18726;SDS011;9492;51.888;5.186;2024-02-15T14:29:25;8.43;;;2.10;;
18726;SDS011;9492;51.888;5.186;2024-02-15T14:31:57;2.97;;;2.20;;
18726;SDS011;9492;51.888;5.186;2024-02-15T14:34:42;2.30;;;2.10;;
18726;SDS011;9492;51.888;5.186;2024-02-15T14:37:08;4.70;;;3.00;;
18726;SDS011;9492;51.888;5.186;2024-02-15T14:39:35;3.27;;;2.20;;
18726;SDS011;9492;51.888;5.186;2024-02-15T14:42:00;2.97;;;2.00;;
18726;SDS011;9492;51.888;5.186;2024-02-15T14:44:26;5.57;;;1.80;;
18726;SDS011;9492;51.888;5.186;2024-02-15T14:46:52;3.93;;;1.90;;
18726;SDS011;9492;51.888;5.186;2024-02-15T14:49:18;3.30;;;1.77;;
18726;SDS011;9492;51.888;5.186;2024-02-15T14:51:44;3.20;;;1.60;;
18726;SDS011;9492;51.888;5.186;2024-02-15T14:54:11;2.70;;;1.83;;
18726;SDS011;9492;51.888;5.186;2024-02-15T14:56:37;4.13;;;1.60;;
18726;SDS011;9492;51.888;5.186;2024-02-15T14:59:04;4.47;;;1.87;;
18726;SDS011;9492;51.888;5.186;2024-02-15T15:01:31;2.40;;;1.90;;
18726;SDS011;9492;51.888;5.186;2024-02-15T15:03:57;1.63;;;1.53;;
18726;SDS011;9492;51.888;5.186;2024-02-15T15:06:23;5.20;;;1.90;;
18726;SDS011;9492;51.888;5.186;2024-02-15T15:09:08;2.10;;;1.53;;
18726;SDS011;9492;51.888;5.186;2024-02-15T15:11:53;3.20;;;1.63;;
18726;SDS011;9492;51.888;5.186;2024-02-15T15:14:37;2.80;;;1.60;;
18726;SDS011;9492;51.888;5.186;2024-02-15T15:17:07;1.83;;;1.40;;
18726;SDS011;9492;51.888;5.186;2024-02-15T15:19:35;3.40;;;1.73;;
18726;SDS011;9492;51.888;5.186;2024-02-15T15:22:02;2.33;;;1.60;;
18726;SDS011;9492;51.888;5.186;2024-02-15T15:24:30;3.07;;;1.80;;
18726;SDS011;9492;51.888;5.186;2024-02-15T15:26:57;1.87;;;1.70;;
18726;SDS011;9492;51.888;5.186;2024-02-15T15:29:24;3.27;;;1.80;;
18726;SDS011;9492;51.888;5.186;2024-02-15T15:31:50;5.30;;;2.20;;
18726;SDS011;9492;51.888;5.186;2024-02-15T15:34:16;4.07;;;2.00;;